Time;durP1;ratioP1;P1;durP2;ratioP2;P2;SDS_P1;SDS_P2;PMS_P1;PMS_P2;Temp;Humidity;BMP_temperature;BMP_pressure;BME280_temperature;BME280_humidity;BME280_pressure;Samples;Min_cycle;Max_cycle;Signal;HPM_P1;HPM_P2
2022/11/29 00:01:05;;;;;;;21.75;14.73;;;;;;;9.25;100.00;96096.41;5070179;28;20071;-46
2022/11/29 00:03:34;;;;;;;24.70;15.35;;;;;;;9.57;100.00;96095.16;5070144;28;20072;-45
2022/11/29 00:06:06;;;;;;;23.10;14.77;;;;;;;9.15;100.00;96091.19;5069336;28;20084;-43
2022/11/29 00:08:35;;;;;;;21.73;14.65;;;;;;;9.44;100.00;96091.06;5070098;28;20084;-41
2022/11/29 00:11:05;;;;;;;21.77;15.20;;;;;;;9.60;100.00;96092.19;5070271;28;20531;-41
2022/11/29 00:13:34;;;;;;;21.83;14.80;;;;;;;9.51;100.00;96088.66;5070194;28;20087;-42
2022/11/29 00:16:03;;;;;;;25.73;15.55;;;;;;;9.41;100.00;96090.53;5070074;28;20080;-43
2022/11/29 00:18:32;;;;;;;22.80;14.63;;;;;;;9.55;100.00;96091.81;5066437;28;20091;-44
2022/11/29 00:21:05;;;;;;;22.05;14.80;;;;;;;9.38;100.00;96091.63;5065599;28;20060;-42
2022/11/29 00:23:33;;;;;;;20.65;15.02;;;;;;;9.21;100.00;96087.97;5067293;28;20122;-43
2022/11/29 00:26:07;;;;;;;21.10;15.02;;;;;;;9.10;100.00;96092.59;5069565;28;20092;-42
2022/11/29 00:28:36;;;;;;;21.75;14.57;;;;;;;9.37;100.00;96082.09;5069327;28;20531;-42
2022/11/29 00:31:14;;;;;;;22.13;14.25;;;;;;;9.14;100.00;96086.91;5068898;28;20087;-40
2022/11/29 00:33:42;;;;;;;21.33;14.75;;;;;;;9.13;100.00;96079.16;5069802;28;20076;-44
2022/11/29 00:36:10;;;;;;;24.08;15.45;;;;;;;9.20;100.00;96083.69;5069569;28;20076;-43
2022/11/29 00:38:39;;;;;;;22.15;15.18;;;;;;;9.42;100.00;96084.28;5064873;28;20080;-41
2022/11/29 00:41:09;;;;;;;22.00;14.77;;;;;;;9.39;100.00;96077.50;5069266;28;20694;-42
2022/11/29 00:43:37;;;;;;;22.33;15.27;;;;;;;9.21;100.00;96085.34;5068340;28;20095;-43
2022/11/29 00:46:07;;;;;;;22.40;14.93;;;;;;;9.12;100.00;96077.47;5069346;28;20091;-44
2022/11/29 00:48:36;;;;;;;22.25;14.43;;;;;;;8.93;100.00;96078.41;5068852;28;20680;-41
2022/11/29 00:51:05;;;;;;;21.27;15.23;;;;;;;8.91;100.00;96077.69;5067540;28;20083;-43
2022/11/29 00:53:34;;;;;;;20.38;14.43;;;;;;;8.84;100.00;96087.97;5069235;28;20095;-40
2022/11/29 00:56:03;;;;;;;22.88;15.10;;;;;;;9.09;100.00;96076.00;5062244;28;20092;-41
2022/11/29 00:58:33;;;;;;;23.15;14.95;;;;;;;9.20;100.00;96074.97;5068253;28;20072;-41
2022/11/29 01:01:01;;;;;;;20.85;14.57;;;;;;;9.08;100.00;96076.13;5065075;28;20084;-45
2022/11/29 01:03:30;;;;;;;22.38;14.93;;;;;;;9.21;100.00;96074.81;5068582;28;20319;-43
2022/11/29 01:06:01;;;;;;;23.23;14.90;;;;;;;8.88;100.00;96077.97;5064443;28;20459;-43
2022/11/29 01:08:29;;;;;;;22.17;13.57;;;;;;;9.11;100.00;96073.19;5062691;28;20151;-42
2022/11/29 01:11:05;;;;;;;22.08;14.32;;;;;;;9.08;100.00;96066.41;5069198;28;20457;-41
2022/11/29 01:13:35;;;;;;;22.05;14.73;;;;;;;9.16;100.00;96078.88;5068339;28;20620;-42
2022/11/29 01:16:04;;;;;;;24.35;14.65;;;;;;;8.94;100.00;96075.63;5069114;28;20076;-40
2022/11/29 01:18:33;;;;;;;20.20;13.93;;;;;;;8.76;100.00;96083.41;5066391;28;20095;-42
2022/11/29 01:21:03;;;;;;;23.15;15.20;;;;;;;9.22;100.00;96089.66;5068779;28;20076;-40
2022/11/29 01:23:31;;;;;;;19.45;13.52;;;;;;;9.46;100.00;96083.00;5068946;28;20087;-44
2022/11/29 01:26:01;;;;;;;24.05;14.82;;;;;;;9.20;100.00;96083.69;5068871;28;20084;-41
2022/11/29 01:28:30;;;;;;;19.63;13.67;;;;;;;9.30;100.00;96086.28;5068454;28;20162;-41
2022/11/29 01:30:59;;;;;;;20.17;14.07;;;;;;;9.51;100.00;96083.41;5065402;28;20083;-42
2022/11/29 01:33:28;;;;;;;21.00;14.13;;;;;;;9.30;100.00;96082.81;5068989;28;20098;-40
2022/11/29 01:35:56;;;;;;;18.95;13.43;;;;;;;9.37;100.00;96079.47;5068865;28;20080;-45
2022/11/29 01:38:24;;;;;;;19.02;13.98;;;;;;;9.55;100.00;96079.50;5067452;28;20076;-41
2022/11/29 01:40:58;;;;;;;21.58;15.20;;;;;;;9.49;100.00;96085.34;5068856;28;20072;-41
2022/11/29 01:43:26;;;;;;;21.45;14.15;;;;;;;9.56;100.00;96085.59;5068592;28;20072;-42
2022/11/29 01:45:54;;;;;;;20.98;14.00;;;;;;;9.38;100.00;96089.00;5068714;28;20570;-40
2022/11/29 01:48:27;;;;;;;21.05;13.85;;;;;;;9.28;100.00;96089.03;5063185;28;20079;-44
2022/11/29 01:50:59;;;;;;;22.30;14.77;;;;;;;8.89;100.00;96083.13;5068858;28;20094;-43
2022/11/29 01:53:28;;;;;;;20.58;14.40;;;;;;;9.25;100.00;96078.81;5068772;28;20076;-45
2022/11/29 01:56:00;;;;;;;22.33;15.18;;;;;;;8.86;100.00;96077.31;5068226;28;20076;-48
2022/11/29 01:58:29;;;;;;;21.00;14.57;;;;;;;9.22;100.00;96080.91;5067969;28;20076;-41
2022/11/29 02:00:58;;;;;;;22.13;14.77;;;;;;;8.90;100.00;96081.31;5068533;28;20080;-41
2022/11/29 02:03:28;;;;;;;21.60;14.57;;;;;;;9.09;100.00;96083.88;5068603;28;20092;-43
2022/11/29 02:05:56;;;;;;;21.95;14.23;;;;;;;8.93;100.00;96075.78;5068574;28;20607;-45
2022/11/29 02:08:27;;;;;;;23.52;14.20;;;;;;;9.11;100.00;96081.09;5066342;28;20103;-40
2022/11/29 02:11:12;;;;;;;19.42;13.80;;;;;;;9.14;100.00;96078.19;5071829;28;20087;-45
2022/11/29 02:13:49;;;;;;;22.13;14.32;;;;;;;8.94;100.00;96074.78;5072115;28;20460;-43
2022/11/29 02:16:22;;;;;;;24.42;15.75;;;;;;;9.00;100.00;96072.41;5072689;28;20534;-47
2022/11/29 02:19:00;;;;;;;21.25;14.77;;;;;;;8.89;100.00;96075.22;5071472;28;20079;-46
2022/11/29 02:21:36;;;;;;;21.90;14.25;;;;;;;8.78;100.00;96070.16;5069559;28;20072;-44
2022/11/29 02:24:19;;;;;;;20.70;14.00;;;;;;;8.79;100.00;96066.53;5065903;28;20080;-43
2022/11/29 02:27:06;;;;;;;20.70;14.68;;;;;;;8.79;100.00;96079.69;5072393;28;20083;-44
2022/11/29 02:30:07;;;;;;;24.20;14.60;;;;;;;9.08;100.00;96076.13;5071913;28;20456;-44
2022/11/29 02:33:17;;;;;;;20.02;14.57;;;;;;;8.65;100.00;96073.09;5067886;28;20096;-47
2022/11/29 02:36:07;;;;;;;20.38;13.65;;;;;;;8.52;100.00;96072.56;5067946;28;20083;-41
2022/11/29 02:38:56;;;;;;;23.85;14.07;;;;;;;8.81;100.00;96075.13;5066388;28;20410;-41
2022/11/29 02:41:34;;;;;;;18.50;13.15;;;;;;;8.69;100.00;96078.88;5062469;28;20077;-44
2022/11/29 02:44:29;;;;;;;21.20;15.00;;;;;;;9.04;100.00;96075.59;5071690;28;20084;-41
2022/11/29 02:47:08;;;;;;;18.95;13.68;;;;;;;9.17;100.00;96078.72;5057934;28;20099;-42
2022/11/29 02:49:54;;;;;;;24.20;14.50;;;;;;;8.98;100.00;96077.00;5068678;28;20558;-41
2022/11/29 02:52:30;;;;;;;19.45;13.88;;;;;;;9.05;100.00;96077.25;5068071;28;20527;-44
2022/11/29 02:55:05;;;;;;;20.77;14.35;;;;;;;9.24;100.00;96073.69;5070721;28;20079;-41
2022/11/29 02:57:37;;;;;;;22.27;14.48;;;;;;;9.12;100.00;96080.13;5069682;28;20084;-42
2022/11/29 03:00:09;;;;;;;19.75;14.73;;;;;;;9.04;100.00;96072.94;5070753;28;20068;-41
2022/11/29 03:02:43;;;;;;;22.25;14.70;;;;;;;9.08;100.00;96078.75;5071180;28;20084;-52
2022/11/29 03:05:19;;;;;;;21.20;14.43;;;;;;;8.92;100.00;96084.63;5071389;28;20527;-46
2022/11/29 03:07:55;;;;;;;22.30;14.30;;;;;;;9.03;100.00;96081.81;5065446;28;20068;-43
2022/11/29 03:10:31;;;;;;;20.30;14.43;;;;;;;8.89;100.00;96083.13;5070938;28;20523;-44
2022/11/29 03:12:59;;;;;;;23.17;15.00;;;;;;;8.78;100.00;96092.00;5068757;28;20071;-43
2022/11/29 03:15:30;;;;;;;21.20;15.15;;;;;;;8.94;100.00;96094.03;5072125;28;20068;-45
2022/11/29 03:18:07;;;;;;;24.25;16.13;;;;;;;8.71;100.00;96093.56;5070759;28;20520;-40
2022/11/29 03:20:49;;;;;;;24.83;16.83;;;;;;;8.90;100.00;96102.34;5070933;28;20087;-41
2022/11/29 03:23:23;;;;;;;24.05;15.35;;;;;;;9.13;100.00;96095.78;5064973;28;20072;-43
2022/11/29 03:25:55;;;;;;;25.08;15.90;;;;;;;9.01;100.00;96099.53;5065612;28;20083;-42
2022/11/29 03:28:29;;;;;;;26.35;16.60;;;;;;;9.24;100.00;96106.09;5070430;28;20080;-42
2022/11/29 03:31:02;;;;;;;26.35;16.02;;;;;;;8.96;100.00;96109.66;5081030;28;20529;-42
2022/11/29 03:33:35;;;;;;;25.25;15.65;;;;;;;9.17;100.00;96102.38;5070242;28;20076;-43
2022/11/29 03:36:10;;;;;;;22.70;14.98;;;;;;;9.24;100.00;96100.84;5071210;28;20075;-41
2022/11/29 03:38:41;;;;;;;20.90;14.85;;;;;;;9.20;100.00;96110.00;5070310;28;20080;-41
2022/11/29 03:41:18;;;;;;;25.30;14.35;;;;;;;9.17;100.00;96107.66;5071088;28;20068;-40
2022/11/29 03:43:51;;;;;;;23.27;15.23;;;;;;;9.25;100.00;96106.91;5071024;28;20075;-40
2022/11/29 03:46:25;;;;;;;20.17;14.07;;;;;;;9.03;100.00;96108.13;5065856;28;20063;-40
2022/11/29 03:48:56;;;;;;;20.20;13.90;;;;;;;9.07;100.00;96111.28;5064603;28;20076;-42
2022/11/29 03:51:37;;;;;;;21.02;13.57;;;;;;;9.28;100.00;96107.47;5069386;28;20076;-41
2022/11/29 03:54:10;;;;;;;19.75;13.43;;;;;;;9.20;100.00;96110.00;5070374;28;20084;-42
2022/11/29 03:56:40;;;;;;;19.88;13.05;;;;;;;9.31;100.00;96110.78;5070302;28;20068;-44
2022/11/29 03:59:18;;;;;;;18.40;12.77;;;;;;;9.09;100.00;96107.56;5069640;28;20151;-41
2022/11/29 04:02:25;;;;;;;19.40;13.90;;;;;;;8.97;100.00;96112.16;5070244;28;20110;-47
2022/11/29 04:05:44;;;;;;;16.92;12.57;;;;;;;8.98;100.00;96103.31;5067432;28;20473;-41
2022/11/29 04:08:48;;;;;;;19.58;12.57;;;;;;;8.96;100.00;96099.97;5054698;28;20523;-41
2022/11/29 04:11:53;;;;;;;20.35;13.70;;;;;;;9.14;100.00;96113.19;5068044;28;20419;-42
2022/11/29 04:14:34;;;;;;;20.88;14.05;;;;;;;8.85;100.00;96105.41;5070084;28;20087;-41
2022/11/29 04:17:30;;;;;;;16.50;12.55;;;;;;;8.75;100.00;96102.81;5070357;28;20088;-41
2022/11/29 04:20:34;;;;;;;18.58;12.88;;;;;;;8.77;100.00;96108.75;5064540;28;20106;-41
2022/11/29 04:23:41;;;;;;;15.98;12.05;;;;;;;8.92;100.00;96103.88;5062670;28;20080;-41
2022/11/29 04:26:28;;;;;;;;;;;;;;;8.71;100.00;96103.25;5065212;28;20087;-41
2022/11/29 04:29:18;;;;;;;16.75;11.13;;;;;;;8.99;100.00;96098.88;5068614;28;19963;-42
2022/11/29 04:32:03;;;;;;;17.40;11.20;;;;;;;8.92;100.00;96106.50;5065286;28;20085;-44
2022/11/29 04:34:46;;;;;;;17.13;12.48;;;;;;;8.83;100.00;96099.47;5065536;28;20083;-41
2022/11/29 04:37:26;;;;;;;18.63;12.18;;;;;;;8.80;100.00;96105.81;5069126;28;20082;-42
2022/11/29 04:40:07;;;;;;;18.02;12.35;;;;;;;8.78;100.00;96105.16;5064202;28;20550;-42
2022/11/29 04:42:59;;;;;;;15.38;11.18;;;;;;;8.78;100.00;96105.16;5070057;28;20079;-42
2022/11/29 04:45:41;;;;;;;14.85;10.80;;;;;;;8.58;100.00;96093.03;5069407;28;20455;-46
2022/11/29 04:48:32;;;;;;;16.58;11.50;;;;;;;8.58;100.00;96105.34;5069442;28;20071;-42
2022/11/29 04:51:09;;;;;;;18.45;11.73;;;;;;;8.69;100.00;96099.91;5069529;28;20084;-41
2022/11/29 04:53:49;;;;;;;14.77;11.07;;;;;;;9.06;100.00;96112.28;5069438;28;20071;-41
2022/11/29 04:56:23;;;;;;;17.45;12.32;;;;;;;8.87;100.00;96113.97;5068987;28;20079;-44
2022/11/29 04:58:55;;;;;;;18.08;12.32;;;;;;;9.18;100.00;96111.94;5069062;28;20071;-41
2022/11/29 05:01:29;;;;;;;18.17;11.90;;;;;;;9.11;100.00;96117.91;5069133;28;20059;-41
2022/11/29 05:04:02;;;;;;;16.17;11.80;;;;;;;9.05;100.00;96124.59;5069449;28;20955;-45
2022/11/29 05:06:35;;;;;;;16.90;11.70;;;;;;;9.37;100.00;96116.31;5069420;28;20079;-43
2022/11/29 05:09:10;;;;;;;18.60;11.68;;;;;;;9.27;100.00;96121.59;5068740;28;20076;-40
2022/11/29 05:11:50;;;;;;;17.55;11.60;;;;;;;9.46;100.00;96114.56;5064140;28;20527;-44
2022/11/29 05:14:30;;;;;;;15.75;11.50;;;;;;;9.14;100.00;96110.56;5062786;28;20071;-42
2022/11/29 05:17:09;;;;;;;16.95;11.07;;;;;;;9.13;100.00;96113.34;5062914;28;20068;-45
2022/11/29 05:19:51;;;;;;;16.20;10.90;;;;;;;9.31;100.00;96114.25;5064204;28;20072;-42
2022/11/29 05:22:27;;;;;;;16.23;10.85;;;;;;;9.13;100.00;96114.19;5065520;28;20068;-41
2022/11/29 05:25:02;;;;;;;15.75;11.27;;;;;;;9.32;100.00;96113.25;5065262;28;20072;-43
2022/11/29 05:27:40;;;;;;;17.85;11.73;;;;;;;9.09;100.00;96114.63;5065349;28;20550;-41
2022/11/29 05:30:13;;;;;;;22.60;13.38;;;;;;;9.13;100.00;96119.44;5065934;28;20080;-43
2022/11/29 05:32:50;;;;;;;25.08;14.07;;;;;;;9.15;100.00;96121.91;5058724;28;20068;-45
2022/11/29 05:35:51;;;;;;;20.63;12.70;;;;;;;9.06;100.00;96128.88;5063533;28;20078;-39
2022/11/29 05:38:34;;;;;;;;;;;;;;;9.13;100.00;96124.69;5064157;28;20080;-48
2022/11/29 05:41:14;;;;;;;17.92;11.48;;;;;;;9.14;100.00;96126.34;5059328;28;19955;-42
2022/11/29 05:43:53;;;;;;;19.65;13.65;;;;;;;9.54;100.00;96130.50;5067053;28;20083;-41
2022/11/29 05:46:29;;;;;;;19.88;13.10;;;;;;;9.79;100.00;96139.50;5069024;28;20079;-41
2022/11/29 05:49:03;;;;;;;21.98;13.38;;;;;;;9.77;100.00;96133.53;5065427;28;20080;-40
2022/11/29 05:51:40;;;;;;;18.35;12.80;;;;;;;9.95;100.00;96131.78;5064085;28;20086;-40
2022/11/29 05:54:16;;;;;;;16.92;12.20;;;;;;;9.98;100.00;96135.94;5067026;28;20084;-44
2022/11/29 05:56:53;;;;;;;17.70;11.68;;;;;;;9.37;100.00;96136.53;5068279;28;20769;-42
2022/11/29 05:59:23;;;;;;;17.88;12.65;;;;;;;9.48;100.00;96137.16;5067705;28;20088;-42
2022/11/29 06:01:58;;;;;;;16.77;12.82;;;;;;;9.65;100.00;96135.56;5063171;28;20110;-43
2022/11/29 06:04:29;;;;;;;18.75;12.00;;;;;;;9.56;100.00;96144.31;5070787;28;20090;-40
2022/11/29 06:07:03;;;;;;;18.77;11.93;;;;;;;9.49;100.00;96140.63;5068376;28;20099;-40
2022/11/29 06:09:35;;;;;;;19.05;12.80;;;;;;;9.59;100.00;96136.13;5068538;28;20088;-40
2022/11/29 06:12:05;;;;;;;16.77;12.52;;;;;;;9.44;100.00;96135.78;5067049;28;20077;-40
2022/11/29 06:14:37;;;;;;;;;;;;;;;9.28;100.00;96141.66;5064994;28;20075;-39
2022/11/29 06:17:32;;;;;;;17.67;12.38;;;;;;;9.60;100.00;96136.94;5065383;28;19971;-42
2022/11/29 06:20:23;;;;;;;18.08;12.45;;;;;;;9.44;100.00;96137.59;5039168;28;20084;-41
2022/11/29 06:23:15;;;;;;;18.13;12.82;;;;;;;9.56;100.00;96146.94;5063136;28;20076;-41
2022/11/29 06:25:55;;;;;;;18.27;11.57;;;;;;;9.48;100.00;96144.22;5067987;28;20126;-41
2022/11/29 06:28:41;;;;;;;16.83;11.73;;;;;;;9.33;100.00;96153.59;5069106;28;20094;-41
2022/11/29 06:31:15;;;;;;;16.23;12.20;;;;;;;9.49;100.00;96153.78;5067368;28;20080;-41
2022/11/29 06:33:50;;;;;;;18.02;12.48;;;;;;;9.77;100.00;96156.41;5062912;28;20081;-40
2022/11/29 06:36:21;;;;;;;17.52;12.75;;;;;;;9.85;100.00;96154.72;5064336;28;20083;-40
2022/11/29 06:38:50;;;;;;;18.05;12.63;;;;;;;9.83;100.00;96161.91;5063741;28;20468;-45
2022/11/29 06:41:20;;;;;;;17.35;12.43;;;;;;;9.94;100.00;96163.50;5066531;28;20076;-43
2022/11/29 06:43:49;;;;;;;;;;;;;;;10.01;100.00;96164.56;5064795;28;20485;-41
2022/11/29 06:46:25;;;;;;;18.63;12.65;;;;;;;9.48;100.00;96160.84;5062682;28;19948;-40
2022/11/29 06:48:59;;;;;;;17.55;12.50;;;;;;;9.68;100.00;96168.66;5063933;28;20084;-41
2022/11/29 06:51:33;;;;;;;19.63;13.93;;;;;;;10.02;100.00;96161.00;5066643;28;20091;-40
2022/11/29 06:54:12;;;;;;;18.00;13.18;;;;;;;9.94;100.00;96163.50;5064996;28;20474;-43
2022/11/29 06:56:44;;;;;;;17.98;12.70;;;;;;;9.61;100.00;96160.53;5064628;28;20084;-40
2022/11/29 06:59:26;;;;;;;22.88;14.65;;;;;;;9.40;100.00;96167.81;5064589;28;20621;-44
2022/11/29 07:01:59;;;;;;;20.90;14.45;;;;;;;9.48;100.00;96174.00;5064015;28;20080;-44
2022/11/29 07:04:49;;;;;;;18.75;12.68;;;;;;;9.86;100.00;96176.59;5069101;28;20154;-42
2022/11/29 07:07:20;;;;;;;18.17;13.20;;;;;;;9.72;100.00;96170.03;5068125;28;20095;-46
2022/11/29 07:09:51;;;;;;;20.42;13.35;;;;;;;9.65;100.00;96176.84;5071354;28;20088;-40
2022/11/29 07:12:20;;;;;;;17.83;12.85;;;;;;;9.65;100.00;96176.84;5071139;28;20083;-40
2022/11/29 07:14:49;;;;;;;18.58;12.90;;;;;;;9.85;100.00;96178.41;5071176;28;20080;-40
2022/11/29 07:17:24;;;;;;;18.20;13.02;;;;;;;9.98;100.00;96183.34;5069625;28;20087;-46
2022/11/29 07:20:02;;;;;;;18.25;12.48;;;;;;;9.92;100.00;96183.91;5070991;28;20084;-41
2022/11/29 07:22:44;;;;;;;16.50;11.93;;;;;;;9.92;100.00;96186.56;5071470;28;20069;-42
2022/11/29 07:25:21;;;;;;;17.02;11.15;;;;;;;9.95;100.00;96191.53;5068172;28;20072;-41
2022/11/29 07:27:57;;;;;;;17.02;12.15;;;;;;;9.92;100.00;96189.19;5070506;28;20091;-43
2022/11/29 07:30:28;;;;;;;17.88;11.75;;;;;;;9.97;100.00;96194.84;5070560;28;20084;-42
2022/11/29 07:33:01;;;;;;;19.15;12.18;;;;;;;10.02;100.00;96194.41;5070643;28;20084;-41
2022/11/29 07:35:34;;;;;;;18.38;12.70;;;;;;;10.02;100.00;96192.59;5071030;28;20527;-40
2022/11/29 07:38:09;;;;;;;20.02;11.65;;;;;;;10.16;100.00;96184.19;5070428;28;20080;-45
2022/11/29 07:40:43;;;;;;;20.40;12.60;;;;;;;10.15;100.00;96190.44;5070340;28;20080;-42
2022/11/29 07:43:21;;;;;;;16.70;11.40;;;;;;;9.92;100.00;96189.19;5069929;28;20519;-44
2022/11/29 07:45:50;;;;;;;20.50;12.80;;;;;;;9.90;100.00;96191.94;5065552;28;20472;-43
2022/11/29 07:48:19;;;;;;;18.23;12.30;;;;;;;9.82;100.00;96186.59;5070622;28;20088;-40
2022/11/29 07:50:49;;;;;;;16.63;12.20;;;;;;;9.62;100.00;96190.31;5066147;28;20092;-44
2022/11/29 07:53:18;;;;;;;16.58;12.35;;;;;;;9.86;100.00;96195.88;5070817;28;20084;-42
2022/11/29 07:55:48;;;;;;;17.87;12.43;;;;;;;9.97;100.00;96195.66;5070660;28;20191;-40
2022/11/29 07:58:17;;;;;;;17.30;11.68;;;;;;;9.91;100.00;96198.03;5070559;28;20497;-40
2022/11/29 08:00:45;;;;;;;16.63;12.02;;;;;;;9.79;100.00;96194.78;5070660;28;20464;-39
2022/11/29 08:03:14;;;;;;;17.60;11.85;;;;;;;9.81;100.00;96199.94;5070760;28;20083;-43
2022/11/29 08:05:45;;;;;;;18.85;11.82;;;;;;;10.25;100.00;96200.06;5070024;28;20080;-44
2022/11/29 08:08:15;;;;;;;14.60;11.55;;;;;;;10.17;100.00;96208.72;5069879;28;20092;-40
2022/11/29 08:10:44;;;;;;;20.50;13.00;;;;;;;10.13;100.00;96207.38;5070599;28;20482;-40
2022/11/29 08:13:13;;;;;;;20.27;13.77;;;;;;;10.08;100.00;96202.56;5069828;28;20072;-42
2022/11/29 08:15:44;;;;;;;16.65;12.38;;;;;;;10.03;100.00;96203.97;5071056;28;20080;-46
2022/11/29 08:18:12;;;;;;;18.52;12.63;;;;;;;10.22;100.00;96206.50;5068981;28;20076;-40
2022/11/29 08:20:41;;;;;;;17.33;12.13;;;;;;;10.21;100.00;96202.19;5070860;28;20083;-43
2022/11/29 08:23:11;;;;;;;19.20;12.90;;;;;;;10.21;100.00;96210.91;5070045;28;20547;-41
2022/11/29 08:25:41;;;;;;;18.30;13.23;;;;;;;10.06;100.00;96211.56;5070510;28;20107;-43
2022/11/29 08:28:09;;;;;;;17.38;12.90;;;;;;;10.29;100.00;96212.00;5069986;28;20095;-43
2022/11/29 08:30:38;;;;;;;19.00;13.07;;;;;;;10.38;100.00;96214.56;5067810;28;20083;-41
2022/11/29 08:33:06;;;;;;;17.83;13.60;;;;;;;10.12;100.00;96213.63;5070445;28;20080;-45
2022/11/29 08:35:35;;;;;;;16.95;12.90;;;;;;;10.70;100.00;96205.31;5070852;28;20084;-41
2022/11/29 08:38:04;;;;;;;18.48;12.73;;;;;;;10.34;100.00;96209.75;5069481;28;20083;-42
2022/11/29 08:40:32;;;;;;;19.55;13.65;;;;;;;10.40;100.00;96206.53;5070034;28;20095;-44
2022/11/29 08:43:01;;;;;;;20.15;13.40;;;;;;;10.43;100.00;96208.88;5069850;28;20084;-45
2022/11/29 08:45:30;;;;;;;23.60;14.70;;;;;;;10.14;100.00;96209.84;5070463;28;20110;-41
2022/11/29 08:47:58;;;;;;;20.98;14.23;;;;;;;10.19;100.00;96210.25;5069552;28;20096;-43
2022/11/29 08:50:26;;;;;;;19.73;13.95;;;;;;;10.18;100.00;96208.56;5069998;28;20535;-45
2022/11/29 08:55:41;;;;;;;19.08;13.52;;;;;;;10.07;100.00;96221.94;5064075;28;20083;-43
2022/11/29 08:58:13;;;;;;;21.17;14.15;;;;;;;10.62;100.00;96221.06;5069493;28;20103;-41
2022/11/29 09:00:44;;;;;;;20.10;14.52;;;;;;;10.34;100.00;96215.84;5069854;28;20084;-41
2022/11/29 09:05:58;;;;;;;19.30;14.27;;;;;;;10.51;100.00;96229.22;5070213;28;20076;-40
2022/11/29 09:08:27;;;;;;;19.90;13.88;;;;;;;10.69;100.00;96228.22;5069217;28;20087;-41
2022/11/29 09:10:55;;;;;;;20.17;14.25;;;;;;;10.31;100.00;96225.88;5069626;28;20080;-41
2022/11/29 09:13:24;;;;;;;19.92;14.35;;;;;;;10.17;100.00;96233.25;5069795;28;20076;-41
2022/11/29 09:15:53;;;;;;;18.92;13.20;;;;;;;10.02;100.00;96220.75;5070106;28;20079;-43
2022/11/29 09:18:21;;;;;;;18.02;13.68;;;;;;;10.59;100.00;96229.28;5068910;28;20098;-44
2022/11/29 09:20:49;;;;;;;19.95;14.15;;;;;;;10.56;100.00;96225.13;5069292;28;20090;-40
2022/11/29 09:23:18;;;;;;;20.38;14.35;;;;;;;10.08;100.00;96230.69;5069489;28;20514;-42
2022/11/29 09:25:48;;;;;;;19.00;12.52;;;;;;;10.22;100.00;96233.66;5069925;28;20095;-39
2022/11/29 09:28:16;;;;;;;21.95;15.88;;;;;;;9.95;100.00;96236.31;5069716;28;20080;-41
2022/11/29 09:30:46;;;;;;;19.50;13.70;;;;;;;10.17;100.00;96235.91;5069297;28;20076;-40
2022/11/29 09:33:14;;;;;;;18.43;14.33;;;;;;;10.07;100.00;96240.41;5069734;28;20076;-41
2022/11/29 09:35:43;;;;;;;20.17;13.43;;;;;;;9.93;100.00;96244.34;5070336;28;20072;-42
2022/11/29 09:38:12;;;;;;;20.15;14.00;;;;;;;10.26;100.00;96236.03;5069218;28;20076;-40
2022/11/29 09:40:42;;;;;;;;;;;;;;;10.22;100.00;96243.38;5070527;28;20052;-47
2022/11/29 09:43:21;;;;;;;18.60;13.25;;;;;;;10.28;100.00;96242.81;5069701;28;19971;-41
2022/11/29 09:45:56;;;;;;;20.00;13.20;;;;;;;10.19;100.00;96239.22;5063620;28;20519;-48
2022/11/29 09:48:43;;;;;;;20.92;13.85;;;;;;;10.44;100.00;96237.72;5069328;28;20099;-42
2022/11/29 09:51:18;;;;;;;20.67;14.63;;;;;;;10.38;100.00;96237.47;5069586;28;20103;-40
2022/11/29 09:54:02;;;;;;;20.67;14.82;;;;;;;10.52;100.00;96236.94;5069895;28;20080;-43
2022/11/29 09:56:34;;;;;;;17.98;13.63;;;;;;;10.43;100.00;96241.34;5069733;28;20119;-40
2022/11/29 09:59:04;;;;;;;20.42;14.20;;;;;;;10.52;100.00;96239.59;5068989;28;20098;-44
2022/11/29 10:01:37;;;;;;;19.90;13.95;;;;;;;10.59;100.00;96243.28;5064475;28;20084;-42
2022/11/29 10:04:11;;;;;;;21.17;14.68;;;;;;;10.58;100.00;96238.19;5069181;28;20079;-42
2022/11/29 10:06:42;;;;;;;17.92;12.77;;;;;;;10.30;100.00;96246.13;5065374;28;20117;-45
2022/11/29 10:09:15;;;;;;;22.02;14.35;;;;;;;10.45;100.00;96246.44;5068857;28;20084;-40
2022/11/29 10:11:52;;;;;;;19.23;13.25;;;;;;;10.76;100.00;96244.28;5067060;28;20562;-47
2022/11/29 10:14:23;;;;;;;20.42;13.65;;;;;;;10.82;100.00;96241.03;5069386;28;20468;-41
2022/11/29 10:16:57;;;;;;;20.13;13.95;;;;;;;10.96;100.00;96239.66;5069432;28;20083;-41
2022/11/29 10:19:31;;;;;;;21.27;14.70;;;;;;;11.32;100.00;96237.81;5068936;28;20084;-42
2022/11/29 10:22:04;;;;;;;24.63;16.10;;;;;;;11.12;100.00;96239.81;5064588;28;20667;-46
2022/11/29 10:24:33;;;;;;;23.00;15.40;;;;;;;11.20;100.00;96238.22;5069323;28;20087;-44
2022/11/29 10:27:02;;;;;;;21.70;16.02;;;;;;;11.07;100.00;96236.78;5069139;28;20088;-42
2022/11/29 10:29:30;;;;;;;22.92;16.48;;;;;;;11.35;100.00;96234.00;5068809;28;20080;-40
2022/11/29 10:32:04;;;;;;;22.90;15.57;;;;;;;10.85;100.00;96240.72;5071638;28;20076;-40
2022/11/29 10:34:37;;;;;;;24.50;18.13;;;;;;;10.75;100.00;96239.97;5069563;28;20516;-42
2022/11/29 10:37:09;;;;;;;21.73;16.55;;;;;;;11.06;100.00;96235.13;5073085;28;20531;-39
2022/11/29 10:39:41;;;;;;;24.35;17.58;;;;;;;11.04;100.00;96233.63;5072405;28;20104;-43
2022/11/29 10:42:47;;;;;;;26.15;16.90;;;;;;;10.98;100.00;96229.81;5072177;28;20076;-42
2022/11/29 10:45:04;;;;;;;22.50;16.38;;;;;;;10.82;100.00;96225.22;5071952;28;20488;-43
2022/11/29 10:47:34;;;;;;;23.77;17.45;;;;;;;10.84;100.00;96228.53;5072067;28;20202;-40
2022/11/29 10:50:03;;;;;;;23.73;16.83;;;;;;;10.98;100.00;96232.44;5072261;28;20079;-43
2022/11/29 10:52:31;;;;;;;24.02;17.30;;;;;;;10.89;100.00;96228.06;5069718;28;20503;-42
2022/11/29 10:55:00;;;;;;;23.30;16.63;;;;;;;10.94;100.00;96228.44;5066886;28;20072;-43
2022/11/29 10:57:28;;;;;;;23.05;16.65;;;;;;;10.72;100.00;96224.47;5071337;28;20174;-41
2022/11/29 11:00:03;;;;;;;25.50;16.58;;;;;;;10.87;100.00;96230.88;5071087;28;20087;-44
2022/11/29 11:02:31;;;;;;;23.75;16.92;;;;;;;10.76;100.00;96233.72;5071431;28;20106;-40
2022/11/29 11:05:01;;;;;;;24.92;17.25;;;;;;;10.93;100.00;96232.88;5071607;28;20079;-40
2022/11/29 11:07:33;;;;;;;24.92;17.50;;;;;;;10.76;100.00;96240.81;5071643;28;20475;-43
2022/11/29 11:10:04;;;;;;;24.55;17.35;;;;;;;10.86;100.00;96233.66;5071604;28;20071;-42
2022/11/29 11:12:35;;;;;;;23.45;16.77;;;;;;;10.82;100.00;96235.75;5067991;28;20080;-40
2022/11/29 11:15:15;;;;;;;23.92;16.80;;;;;;;11.04;100.00;96239.72;5071074;28;20080;-42
2022/11/29 11:17:57;;;;;;;22.80;16.67;;;;;;;11.11;100.00;96235.53;5070801;28;20076;-42
2022/11/29 11:20:28;;;;;;;24.83;16.52;;;;;;;11.17;100.00;96221.69;5065368;28;20501;-42
2022/11/29 11:22:58;;;;;;;22.25;16.13;;;;;;;11.09;100.00;96234.81;5071499;28;20088;-41
2022/11/29 11:25:29;;;;;;;22.92;15.93;;;;;;;10.56;100.00;96240.94;5071738;28;20091;-41
2022/11/29 11:27:58;;;;;;;22.65;16.00;;;;;;;10.87;100.00;96238.78;5070576;28;20098;-44
2022/11/29 11:30:28;;;;;;;21.15;15.13;;;;;;;11.00;100.00;96240.19;5070746;28;20095;-46
2022/11/29 11:33:14;;;;;;;22.10;16.48;;;;;;;10.67;100.00;96239.91;5070661;28;20091;-46
2022/11/29 11:35:44;;;;;;;22.05;15.90;;;;;;;11.13;100.00;96233.53;5070686;28;20460;-44
2022/11/29 11:38:16;;;;;;;23.53;15.50;;;;;;;11.33;100.00;96230.72;5070112;28;20080;-44
2022/11/29 11:40:45;;;;;;;21.30;14.45;;;;;;;11.26;100.00;96237.59;5071394;28;20067;-47
2022/11/29 11:43:19;;;;;;;20.80;14.73;;;;;;;11.10;100.00;96241.75;5070891;28;20068;-41
2022/11/29 11:45:52;;;;;;;22.52;14.68;;;;;;;11.15;100.00;96244.78;5069642;28;20072;-42
2022/11/29 11:48:20;;;;;;;19.83;14.52;;;;;;;11.56;100.00;96234.50;5067551;28;20072;-43
2022/11/29 11:50:52;;;;;;;21.25;14.52;;;;;;;11.55;100.00;96238.09;5070347;28;20088;-42
2022/11/29 11:53:23;;;;;;;19.05;13.95;;;;;;;11.55;100.00;96232.81;5070515;28;20076;-47
2022/11/29 11:55:57;;;;;;;18.60;13.23;;;;;;;11.26;100.00;96242.88;5070891;28;20098;-46